Gasport, New York
Current Conditions -  °F | °C
As of 9:54 AM on Friday 19 Dec 2014 (Local Time) from KBUF Reporting Station
Light Snow Light Snow  
Wind Chill: 16°   Ceiling: 1800
Heat Index: 26°   Visibility: 10mi
Dew Point: 20°   Wind: 10mph
Humidity: 78%   Direction: 260°W
Pressure: 30.18"   Gusts: NA
Location:  43.2°N, 78.58°W
Report Text: KBUF 191454Z 26009KT 10SM -SN FEW011 BKN018 OVC035 M03/M07 A3018 RMK AO2 SLP231 CIG 015V021 PRSNT WX -SNSG PCPN VRY LGT P0000 60000 T10331067 51011
Loading
Personal Weather Stations






























Interactive Weather Map New forecast layout! Learn more

10-Day Weather Forecast

Advertisements
Track Severe Weather on mobile